CST,Max TemperatureF,Mean TemperatureF,Min TemperatureF,Max Dew PointF,MeanDew PointF,Min DewpointF,Max Humidity, Mean Humidity, Min Humidity, Max Sea Level PressureIn, Mean Sea Level PressureIn, Min Sea Level PressureIn, Max VisibilityMiles, Mean VisibilityMiles, Min VisibilityMiles, Max Wind SpeedMPH, Mean Wind SpeedMPH, Max Gust SpeedMPH,PrecipitationIn, CloudCover, Events, WindDirDegrees
2011-11-1,74,55,36,45,37,29,76,56,35,30.09,30.01,29.92,10,10,10,20,8,25,0.00,0,,166
2011-11-2,63,51,39,47,41,36,93,67,40,30.08,30.00,29.94,10,8,3,22,10,31,0.65,7,Rain,272
2011-11-3,49,41,32,40,37,30,92,76,60,30.26,30.06,29.95,10,9,3,24,12,35,0.51,6,Rain,27
2011-11-4,53,40,27,40,33,26,92,76,59,30.35,30.28,30.22,10,10,8,13,5,16,0.00,0,,89
2011-11-5,58,44,29,44,37,28,92,77,61,30.22,30.09,29.95,10,10,8,21,10,26,0.00,0,,135
2011-11-6,63,56,49,52,48,41,80,72,64,30.09,29.96,29.91,10,10,9,26,14,37,0.04,4,,195
2011-11-7,60,53,46,43,37,31,80,59,37,30.22,30.17,30.11,10,10,6,12,5,13,0.22,6,Rain,63
2011-11-8,47,45,43,45,42,41,93,90,86,30.09,29.99,29.86,10,6,2,26,12,35,1.22,8,Rain,46
2011-11-9,45,39,33,43,36,27,96,79,62,30.08,29.82,29.62,10,6,0,31,15,40,1.23,6,Fog-Rain-Snow-Thunderstorm,327
2011-11-10,41,36,30,29,26,25,85,72,59,30.11,30.08,30.03,10,10,10,21,13,29,T,5,,272
2011-11-11,51,40,28,33,28,23,85,65,44,30.08,29.88,29.75,10,10,9,21,5,25,0.00,0,,196
2011-11-12,60,48,36,44,35,32,82,61,39,29.76,29.66,29.48,10,10,10,23,11,33,0.00,0,,187
2011-11-13,68,56,44,51,40,28,83,57,30,29.63,29.44,29.29,10,10,10,39,16,48,0.00,0,,228
2011-11-14,59,46,32,38,35,29,89,65,40,29.75,29.63,29.57,10,10,8,13,4,16,0.00,2,,210
2011-11-15,64,47,30,36,30,22,92,62,31,29.98,29.77,29.69,10,10,10,24,8,30,0.00,0,,269
2011-11-16,44,35,26,21,16,10,63,45,27,30.22,30.14,29.98,10,10,10,24,11,31,0.00,0,,299
2011-11-17,42,33,23,18,14,12,68,50,32,30.30,30.23,30.15,10,10,10,17,7,22,0.00,0,,261
2011-11-18,57,44,30,23,19,15,53,38,22,30.11,29.92,29.80,10,10,10,29,15,41,0.00,0,,192
2011-11-19,58,48,37,45,34,20,79,58,37,30.03,29.79,29.64,10,10,10,24,14,33,0.00,6,,207
2011-11-20,41,38,35,31,30,29,82,76,70,30.32,30.25,30.06,10,10,10,20,8,26,0.00,8,,21
2011-11-21,50,39,27,37,33,25,92,77,61,30.32,30.24,30.15,10,10,6,17,8,21,0.00,2,,75
2011-11-22,42,40,37,39,38,36,100,90,79,30.15,30.02,29.90,7,4,2,13,7,16,0.14,8,Rain,20
2011-11-23,48,38,27,39,34,26,100,83,65,30.26,30.20,30.10,8,4,2,13,5,15,0.00,3,,238
2011-11-24,59,51,42,43,41,39,96,75,53,30.22,30.12,29.98,10,8,4,22,12,28,0.00,4,,200
2011-11-25,56,50,44,43,41,38,80,70,59,29.98,29.88,29.81,10,10,10,22,11,29,0.00,1,,194
2011-11-26,56,48,40,52,45,36,100,80,59,29.92,29.82,29.78,10,8,4,24,12,29,0.43,8,Rain,241
2011-11-27,40,37,34,34,29,25,85,75,64,30.19,30.07,29.91,10,10,10,22,11,28,0.00,8,,337
2011-11-28,35,32,28,26,25,24,85,77,69,30.21,30.12,30.02,10,10,10,12,6,15,0.00,6,,22
2011-11-29,41,35,29,27,23,17,78,59,40,30.13,30.07,29.98,10,10,10,22,11,30,0.00,0,,346
2011-11-30,43,31,19,22,18,14,84,59,33,30.16,30.12,30.07,10,10,10,12,5,16,0.00,0,,229